Bluffdale, Utah
Current Conditions -  °F | °C
As of 9:53 AM on Friday 24 Oct 2014 (Local Time) from KSLC Reporting Station
Few Clouds Few Clouds  
Wind Chill: 58°   Ceiling: Unl
Heat Index: 58°   Visibility: 10mi
Dew Point: 43°   Wind: 0mph
Humidity: 58%   Direction: NA
Pressure: 30.17"   Gusts: NA
Location:  40.5353°N, 111.962°W
Report Text: KSLC 241553Z 00000KT 10SM FEW200 14/06 A3017 RMK AO2 SLP189 T01440061
Loading
Personal Weather Stations






























Interactive Weather Map
Tropical Storm Tracking
New forecast layout! Learn more

10-Day Weather Forecast

Advertisements
Track Severe Weather on mobile